Terminal Aerodrome Forecast
Issued by NWS

Home | Current Version | Previous Version | Text Only | Print | Product List | Glossary On
Versions: 1 2 3 4 5 6 7 8 9 10 11 12 13 14 15 16 17 18 19 20
000
FTUS43 KGRR 280546
TAFMKG
TAF
KMKG 280546Z 2806/0106 14007KT P6SM BKN050
      TEMPO 2806/2809 P6SM -RA OVC035
     FM280900 14009KT P6SM -RA OVC050
     FM281100 14011KT 2SM -SHRA BR OVC010
     FM281800 17012KT 2SM BR OVC005
     FM010000 19011KT 1/2SM -SHRA FG OVC003=

USA.gov is the U.S. government's official web portal to all federal, state and local government web resources and services.